sensor_id;sensor_type;location;lat;lon;timestamp;temperature;humidity
10826;DHT22;5466;55.898;14.094;2023-09-08T00:00:53;16.50;99.90
10826;DHT22;5466;55.898;14.094;2023-09-08T00:02:54;16.50;99.90
10826;DHT22;5466;55.898;14.094;2023-09-08T00:04:55;16.50;99.90
10826;DHT22;5466;55.898;14.094;2023-09-08T00:06:55;16.50;99.90
10826;DHT22;5466;55.898;14.094;2023-09-08T00:08:56;16.50;99.90
10826;DHT22;5466;55.898;14.094;2023-09-08T00:10:56;16.50;99.90
10826;DHT22;5466;55.898;14.094;2023-09-08T00:12:57;16.50;99.90
10826;DHT22;5466;55.898;14.094;2023-09-08T00:14:57;16.50;99.90
10826;DHT22;5466;55.898;14.094;2023-09-08T00:16:58;16.50;99.90
10826;DHT22;5466;55.898;14.094;2023-09-08T00:18:59;16.50;99.90
10826;DHT22;5466;55.898;14.094;2023-09-08T00:20:59;16.50;99.90
10826;DHT22;5466;55.898;14.094;2023-09-08T00:23:00;16.50;99.90
10826;DHT22;5466;55.898;14.094;2023-09-08T00:25:01;16.40;99.90
10826;DHT22;5466;55.898;14.094;2023-09-08T00:27:02;16.40;99.90
10826;DHT22;5466;55.898;14.094;2023-09-08T00:29:02;16.50;99.90
10826;DHT22;5466;55.898;14.094;2023-09-08T00:31:03;16.40;99.90
10826;DHT22;5466;55.898;14.094;2023-09-08T00:33:05;16.40;99.90
10826;DHT22;5466;55.898;14.094;2023-09-08T00:35:11;16.40;99.90
10826;DHT22;5466;55.898;14.094;2023-09-08T00:37:11;16.40;99.90
10826;DHT22;5466;55.898;14.094;2023-09-08T00:39:12;16.40;99.90
10826;DHT22;5466;55.898;14.094;2023-09-08T00:41:12;16.40;99.90
10826;DHT22;5466;55.898;14.094;2023-09-08T00:43:13;16.40;99.90
10826;DHT22;5466;55.898;14.094;2023-09-08T00:45:13;16.40;99.90
10826;DHT22;5466;55.898;14.094;2023-09-08T00:47:14;16.30;99.90
10826;DHT22;5466;55.898;14.094;2023-09-08T00:49:15;16.30;99.90
10826;DHT22;5466;55.898;14.094;2023-09-08T00:51:15;16.30;99.90
10826;DHT22;5466;55.898;14.094;2023-09-08T00:53:16;16.30;99.90
10826;DHT22;5466;55.898;14.094;2023-09-08T00:55:17;16.40;99.90
10826;DHT22;5466;55.898;14.094;2023-09-08T00:57:18;16.40;99.90
10826;DHT22;5466;55.898;14.094;2023-09-08T00:59:19;16.30;99.90
10826;DHT22;5466;55.898;14.094;2023-09-08T01:01:19;16.30;99.90
10826;DHT22;5466;55.898;14.094;2023-09-08T01:03:20;16.30;99.90
10826;DHT22;5466;55.898;14.094;2023-09-08T01:05:21;16.30;99.90
10826;DHT22;5466;55.898;14.094;2023-09-08T01:07:22;16.30;99.90
10826;DHT22;5466;55.898;14.094;2023-09-08T01:09:23;16.30;99.90
10826;DHT22;5466;55.898;14.094;2023-09-08T01:11:25;16.30;99.90
10826;DHT22;5466;55.898;14.094;2023-09-08T01:13:26;16.30;99.90
10826;DHT22;5466;55.898;14.094;2023-09-08T01:15:27;16.30;99.90
10826;DHT22;5466;55.898;14.094;2023-09-08T01:17:27;16.30;99.90
10826;DHT22;5466;55.898;14.094;2023-09-08T01:19:28;16.30;99.90
10826;DHT22;5466;55.898;14.094;2023-09-08T01:25:56;16.20;99.90
10826;DHT22;5466;55.898;14.094;2023-09-08T01:28:00;16.20;99.90
10826;DHT22;5466;55.898;14.094;2023-09-08T01:30:02;16.20;99.90
10826;DHT22;5466;55.898;14.094;2023-09-08T01:32:04;16.10;99.90
10826;DHT22;5466;55.898;14.094;2023-09-08T01:34:05;16.10;99.90
10826;DHT22;5466;55.898;14.094;2023-09-08T01:36:08;16.10;99.90
10826;DHT22;5466;55.898;14.094;2023-09-08T01:38:08;16.10;99.90
10826;DHT22;5466;55.898;14.094;2023-09-08T01:40:09;16.10;99.90
10826;DHT22;5466;55.898;14.094;2023-09-08T01:42:11;16.10;99.90
10826;DHT22;5466;55.898;14.094;2023-09-08T01:44:11;16.10;99.90
10826;DHT22;5466;55.898;14.094;2023-09-08T01:46:13;16.10;99.90
10826;DHT22;5466;55.898;14.094;2023-09-08T01:48:13;16.10;99.90
10826;DHT22;5466;55.898;14.094;2023-09-08T01:50:14;16.10;99.90
10826;DHT22;5466;55.898;14.094;2023-09-08T01:52:16;16.20;99.90
10826;DHT22;5466;55.898;14.094;2023-09-08T01:54:17;16.10;99.90
10826;DHT22;5466;55.898;14.094;2023-09-08T01:56:17;16.20;99.90
10826;DHT22;5466;55.898;14.094;2023-09-08T01:58:18;16.10;99.90
10826;DHT22;5466;55.898;14.094;2023-09-08T02:00:19;16.10;99.90
10826;DHT22;5466;55.898;14.094;2023-09-08T02:02:19;16.10;99.90
10826;DHT22;5466;55.898;14.094;2023-09-08T02:04:20;16.10;99.90
10826;DHT22;5466;55.898;14.094;2023-09-08T02:06:20;16.00;99.90
10826;DHT22;5466;55.898;14.094;2023-09-08T02:08:21;16.00;99.90
10826;DHT22;5466;55.898;14.094;2023-09-08T02:10:21;15.90;99.90
10826;DHT22;5466;55.898;14.094;2023-09-08T02:12:22;16.00;99.90
10826;DHT22;5466;55.898;14.094;2023-09-08T02:14:22;16.00;99.90
10826;DHT22;5466;55.898;14.094;2023-09-08T02:16:23;16.00;99.90
10826;DHT22;5466;55.898;14.094;2023-09-08T02:18:24;15.90;99.90
10826;DHT22;5466;55.898;14.094;2023-09-08T02:20:25;15.80;99.90
10826;DHT22;5466;55.898;14.094;2023-09-08T02:22:25;15.90;99.90
10826;DHT22;5466;55.898;14.094;2023-09-08T02:24:26;15.90;99.90
10826;DHT22;5466;55.898;14.094;2023-09-08T02:26:26;15.90;99.90
10826;DHT22;5466;55.898;14.094;2023-09-08T02:28:28;15.90;99.90
10826;DHT22;5466;55.898;14.094;2023-09-08T02:30:28;15.90;99.90
10826;DHT22;5466;55.898;14.094;2023-09-08T02:32:29;15.90;99.90
10826;DHT22;5466;55.898;14.094;2023-09-08T02:34:29;15.90;99.90
10826;DHT22;5466;55.898;14.094;2023-09-08T02:36:30;15.90;99.90
10826;DHT22;5466;55.898;14.094;2023-09-08T02:38:31;15.90;99.90
10826;DHT22;5466;55.898;14.094;2023-09-08T02:40:32;15.90;99.90
10826;DHT22;5466;55.898;14.094;2023-09-08T02:42:34;15.80;99.90
10826;DHT22;5466;55.898;14.094;2023-09-08T02:44:35;15.80;99.90
10826;DHT22;5466;55.898;14.094;2023-09-08T02:46:35;15.80;99.90
10826;DHT22;5466;55.898;14.094;2023-09-08T02:48:36;15.80;99.90
10826;DHT22;5466;55.898;14.094;2023-09-08T02:50:36;15.80;99.90
10826;DHT22;5466;55.898;14.094;2023-09-08T02:52:37;15.80;99.90
10826;DHT22;5466;55.898;14.094;2023-09-08T02:54:38;15.80;99.90
10826;DHT22;5466;55.898;14.094;2023-09-08T02:56:39;15.80;99.90
10826;DHT22;5466;55.898;14.094;2023-09-08T02:58:40;15.80;99.90
10826;DHT22;5466;55.898;14.094;2023-09-08T03:00:41;15.70;99.90
10826;DHT22;5466;55.898;14.094;2023-09-08T03:02:41;15.80;99.90
10826;DHT22;5466;55.898;14.094;2023-09-08T03:04:42;15.80;99.90
10826;DHT22;5466;55.898;14.094;2023-09-08T03:06:42;15.70;99.90
10826;DHT22;5466;55.898;14.094;2023-09-08T03:08:43;15.70;99.90
10826;DHT22;5466;55.898;14.094;2023-09-08T03:10:43;15.70;99.90
10826;DHT22;5466;55.898;14.094;2023-09-08T03:12:44;15.70;99.90
10826;DHT22;5466;55.898;14.094;2023-09-08T03:14:44;15.70;99.90
10826;DHT22;5466;55.898;14.094;2023-09-08T03:16:45;15.70;99.90
10826;DHT22;5466;55.898;14.094;2023-09-08T03:18:46;15.60;99.90
10826;DHT22;5466;55.898;14.094;2023-09-08T03:20:50;15.60;99.90
10826;DHT22;5466;55.898;14.094;2023-09-08T03:22:51;15.60;99.90
10826;DHT22;5466;55.898;14.094;2023-09-08T03:24:51;15.60;99.90
10826;DHT22;5466;55.898;14.094;2023-09-08T03:26:52;15.60;99.90
10826;DHT22;5466;55.898;14.094;2023-09-08T03:28:53;15.50;99.90
10826;DHT22;5466;55.898;14.094;2023-09-08T03:30:54;15.50;99.90
10826;DHT22;5466;55.898;14.094;2023-09-08T03:32:54;15.50;99.90
10826;DHT22;5466;55.898;14.094;2023-09-08T03:34:55;15.50;99.90
10826;DHT22;5466;55.898;14.094;2023-09-08T03:36:55;15.50;99.90
10826;DHT22;5466;55.898;14.094;2023-09-08T03:38:56;15.50;99.90
10826;DHT22;5466;55.898;14.094;2023-09-08T03:40:58;15.50;99.90
10826;DHT22;5466;55.898;14.094;2023-09-08T03:42:59;15.50;99.90
10826;DHT22;5466;55.898;14.094;2023-09-08T03:44:59;15.50;99.90
10826;DHT22;5466;55.898;14.094;2023-09-08T03:47:00;15.50;99.90
10826;DHT22;5466;55.898;14.094;2023-09-08T03:49:00;15.50;99.90
10826;DHT22;5466;55.898;14.094;2023-09-08T03:51:01;15.40;99.90
10826;DHT22;5466;55.898;14.094;2023-09-08T03:53:02;15.40;99.90
10826;DHT22;5466;55.898;14.094;2023-09-08T03:55:03;15.40;99.90
10826;DHT22;5466;55.898;14.094;2023-09-08T03:57:04;15.40;99.90
10826;DHT22;5466;55.898;14.094;2023-09-08T03:59:04;15.40;99.90
10826;DHT22;5466;55.898;14.094;2023-09-08T04:01:05;15.40;99.90
10826;DHT22;5466;55.898;14.094;2023-09-08T04:03:05;15.40;99.90
10826;DHT22;5466;55.898;14.094;2023-09-08T04:05:06;15.40;99.90
10826;DHT22;5466;55.898;14.094;2023-09-08T04:07:07;15.40;99.90
10826;DHT22;5466;55.898;14.094;2023-09-08T04:09:07;15.40;99.90
10826;DHT22;5466;55.898;14.094;2023-09-08T04:11:08;15.30;99.90
10826;DHT22;5466;55.898;14.094;2023-09-08T04:13:09;15.30;99.90
10826;DHT22;5466;55.898;14.094;2023-09-08T04:15:09;15.30;99.90
10826;DHT22;5466;55.898;14.094;2023-09-08T04:17:10;15.20;99.90
10826;DHT22;5466;55.898;14.094;2023-09-08T04:19:11;15.20;99.90
10826;DHT22;5466;55.898;14.094;2023-09-08T04:21:11;15.20;99.90
10826;DHT22;5466;55.898;14.094;2023-09-08T04:23:12;15.20;99.90
10826;DHT22;5466;55.898;14.094;2023-09-08T04:25:12;15.20;99.90
10826;DHT22;5466;55.898;14.094;2023-09-08T04:27:13;15.10;99.90
10826;DHT22;5466;55.898;14.094;2023-09-08T04:29:13;15.10;99.90
10826;DHT22;5466;55.898;14.094;2023-09-08T04:31:14;15.10;99.90
10826;DHT22;5466;55.898;14.094;2023-09-08T04:33:15;15.10;99.90
10826;DHT22;5466;55.898;14.094;2023-09-08T04:35:15;15.20;99.90
10826;DHT22;5466;55.898;14.094;2023-09-08T04:37:16;15.20;99.90
10826;DHT22;5466;55.898;14.094;2023-09-08T04:39:17;15.20;99.90
10826;DHT22;5466;55.898;14.094;2023-09-08T04:41:17;15.10;99.90
10826;DHT22;5466;55.898;14.094;2023-09-08T04:43:18;15.10;99.90
10826;DHT22;5466;55.898;14.094;2023-09-08T04:45:18;15.10;99.90
10826;DHT22;5466;55.898;14.094;2023-09-08T04:47:19;15.10;99.90
10826;DHT22;5466;55.898;14.094;2023-09-08T04:49:19;15.10;99.90
10826;DHT22;5466;55.898;14.094;2023-09-08T04:51:20;15.10;99.90
10826;DHT22;5466;55.898;14.094;2023-09-08T04:53:21;15.00;99.90
10826;DHT22;5466;55.898;14.094;2023-09-08T04:55:21;15.10;99.90
10826;DHT22;5466;55.898;14.094;2023-09-08T04:57:22;15.10;99.90
10826;DHT22;5466;55.898;14.094;2023-09-08T04:59:23;15.00;99.90
10826;DHT22;5466;55.898;14.094;2023-09-08T05:01:23;15.00;99.90
10826;DHT22;5466;55.898;14.094;2023-09-08T05:03:24;15.10;99.90
10826;DHT22;5466;55.898;14.094;2023-09-08T05:05:26;15.10;99.90
10826;DHT22;5466;55.898;14.094;2023-09-08T05:07:27;15.10;99.90
10826;DHT22;5466;55.898;14.094;2023-09-08T05:09:27;15.10;99.90
10826;DHT22;5466;55.898;14.094;2023-09-08T05:11:28;15.10;99.90
10826;DHT22;5466;55.898;14.094;2023-09-08T05:13:28;15.10;99.90
10826;DHT22;5466;55.898;14.094;2023-09-08T05:15:29;15.10;99.90
10826;DHT22;5466;55.898;14.094;2023-09-08T05:17:31;15.20;99.90
10826;DHT22;5466;55.898;14.094;2023-09-08T05:19:31;15.20;99.90
10826;DHT22;5466;55.898;14.094;2023-09-08T05:21:33;15.20;99.90
10826;DHT22;5466;55.898;14.094;2023-09-08T05:23:34;15.20;99.90
10826;DHT22;5466;55.898;14.094;2023-09-08T05:25:34;15.20;99.90
10826;DHT22;5466;55.898;14.094;2023-09-08T05:27:35;15.30;99.90
10826;DHT22;5466;55.898;14.094;2023-09-08T05:29:36;15.30;99.90
10826;DHT22;5466;55.898;14.094;2023-09-08T05:31:36;15.30;99.90
10826;DHT22;5466;55.898;14.094;2023-09-08T05:33:37;15.30;99.90
10826;DHT22;5466;55.898;14.094;2023-09-08T05:35:37;15.30;99.90
10826;DHT22;5466;55.898;14.094;2023-09-08T05:37:38;15.20;99.90
10826;DHT22;5466;55.898;14.094;2023-09-08T05:39:38;15.10;99.90
10826;DHT22;5466;55.898;14.094;2023-09-08T05:41:39;15.20;99.90
10826;DHT22;5466;55.898;14.094;2023-09-08T05:43:40;15.10;99.90
10826;DHT22;5466;55.898;14.094;2023-09-08T05:45:40;15.10;99.90
10826;DHT22;5466;55.898;14.094;2023-09-08T05:47:41;15.10;99.90
10826;DHT22;5466;55.898;14.094;2023-09-08T05:49:41;15.20;99.90
10826;DHT22;5466;55.898;14.094;2023-09-08T05:51:42;15.20;99.90
10826;DHT22;5466;55.898;14.094;2023-09-08T05:53:42;15.20;99.90
10826;DHT22;5466;55.898;14.094;2023-09-08T05:55:43;15.20;99.90
10826;DHT22;5466;55.898;14.094;2023-09-08T05:57:44;15.20;99.90
10826;DHT22;5466;55.898;14.094;2023-09-08T05:59:44;15.30;99.90
10826;DHT22;5466;55.898;14.094;2023-09-08T06:01:45;15.30;99.90
10826;DHT22;5466;55.898;14.094;2023-09-08T06:03:46;15.40;99.90
10826;DHT22;5466;55.898;14.094;2023-09-08T06:05:46;15.40;99.90
10826;DHT22;5466;55.898;14.094;2023-09-08T06:07:47;15.50;99.90
10826;DHT22;5466;55.898;14.094;2023-09-08T06:09:49;15.50;99.90
10826;DHT22;5466;55.898;14.094;2023-09-08T06:11:49;15.50;99.90
10826;DHT22;5466;55.898;14.094;2023-09-08T06:13:50;15.40;99.90
10826;DHT22;5466;55.898;14.094;2023-09-08T06:15:51;15.40;99.90
10826;DHT22;5466;55.898;14.094;2023-09-08T06:17:51;15.40;99.90
10826;DHT22;5466;55.898;14.094;2023-09-08T06:19:52;15.40;99.90
10826;DHT22;5466;55.898;14.094;2023-09-08T06:21:52;15.40;99.90
10826;DHT22;5466;55.898;14.094;2023-09-08T06:23:53;15.50;99.90
10826;DHT22;5466;55.898;14.094;2023-09-08T06:25:56;15.60;99.90
10826;DHT22;5466;55.898;14.094;2023-09-08T06:28:00;15.70;99.90
10826;DHT22;5466;55.898;14.094;2023-09-08T06:30:00;15.70;99.90
10826;DHT22;5466;55.898;14.094;2023-09-08T06:32:01;15.70;99.90
10826;DHT22;5466;55.898;14.094;2023-09-08T06:34:02;15.80;99.90
10826;DHT22;5466;55.898;14.094;2023-09-08T06:36:02;15.90;99.90
10826;DHT22;5466;55.898;14.094;2023-09-08T06:38:03;15.80;99.90
10826;DHT22;5466;55.898;14.094;2023-09-08T06:40:05;15.80;99.90
10826;DHT22;5466;55.898;14.094;2023-09-08T06:42:05;15.70;99.90
10826;DHT22;5466;55.898;14.094;2023-09-08T06:44:06;15.80;99.90
10826;DHT22;5466;55.898;14.094;2023-09-08T06:46:07;16.00;99.90
10826;DHT22;5466;55.898;14.094;2023-09-08T06:48:07;16.10;99.90
10826;DHT22;5466;55.898;14.094;2023-09-08T06:50:08;16.20;99.90
10826;DHT22;5466;55.898;14.094;2023-09-08T06:52:09;16.30;99.90
10826;DHT22;5466;55.898;14.094;2023-09-08T06:54:10;16.40;99.90
10826;DHT22;5466;55.898;14.094;2023-09-08T06:56:10;16.40;99.90
10826;DHT22;5466;55.898;14.094;2023-09-08T06:58:11;16.50;99.90
10826;DHT22;5466;55.898;14.094;2023-09-08T07:00:13;16.70;99.90
10826;DHT22;5466;55.898;14.094;2023-09-08T07:02:13;16.80;99.90
10826;DHT22;5466;55.898;14.094;2023-09-08T07:04:14;16.90;99.90
10826;DHT22;5466;55.898;14.094;2023-09-08T07:06:15;16.90;99.90
10826;DHT22;5466;55.898;14.094;2023-09-08T07:08:19;16.90;99.90
10826;DHT22;5466;55.898;14.094;2023-09-08T07:10:19;17.00;99.90
10826;DHT22;5466;55.898;14.094;2023-09-08T07:12:20;17.10;99.90
10826;DHT22;5466;55.898;14.094;2023-09-08T07:14:21;17.20;99.90
10826;DHT22;5466;55.898;14.094;2023-09-08T07:16:21;17.20;99.90
10826;DHT22;5466;55.898;14.094;2023-09-08T07:18:22;17.20;99.90
10826;DHT22;5466;55.898;14.094;2023-09-08T07:20:22;17.30;99.90
10826;DHT22;5466;55.898;14.094;2023-09-08T07:22:23;17.40;99.90
10826;DHT22;5466;55.898;14.094;2023-09-08T07:24:23;17.40;99.90
10826;DHT22;5466;55.898;14.094;2023-09-08T07:26:24;17.30;99.90
10826;DHT22;5466;55.898;14.094;2023-09-08T07:28:25;17.40;99.90
10826;DHT22;5466;55.898;14.094;2023-09-08T07:30:25;17.40;99.90
10826;DHT22;5466;55.898;14.094;2023-09-08T07:32:26;17.50;99.90
10826;DHT22;5466;55.898;14.094;2023-09-08T07:34:27;17.60;99.90
10826;DHT22;5466;55.898;14.094;2023-09-08T07:36:27;17.70;99.90
10826;DHT22;5466;55.898;14.094;2023-09-08T07:38:28;17.90;99.90
10826;DHT22;5466;55.898;14.094;2023-09-08T07:40:28;17.90;99.90
10826;DHT22;5466;55.898;14.094;2023-09-08T07:42:29;18.00;99.90
10826;DHT22;5466;55.898;14.094;2023-09-08T07:44:30;17.80;99.90
10826;DHT22;5466;55.898;14.094;2023-09-08T07:46:30;17.80;99.90
10826;DHT22;5466;55.898;14.094;2023-09-08T07:48:31;17.90;99.90
10826;DHT22;5466;55.898;14.094;2023-09-08T07:50:32;18.00;99.90
10826;DHT22;5466;55.898;14.094;2023-09-08T07:52:33;18.10;99.90
10826;DHT22;5466;55.898;14.094;2023-09-08T07:54:33;17.90;99.90
10826;DHT22;5466;55.898;14.094;2023-09-08T07:56:34;17.80;99.90
10826;DHT22;5466;55.898;14.094;2023-09-08T07:58:36;17.90;99.90
10826;DHT22;5466;55.898;14.094;2023-09-08T08:00:36;18.00;99.90
10826;DHT22;5466;55.898;14.094;2023-09-08T08:02:41;18.10;99.90
10826;DHT22;5466;55.898;14.094;2023-09-08T08:04:42;18.10;99.90
10826;DHT22;5466;55.898;14.094;2023-09-08T08:06:42;18.40;99.90
10826;DHT22;5466;55.898;14.094;2023-09-08T08:08:43;18.60;99.90
10826;DHT22;5466;55.898;14.094;2023-09-08T08:10:44;18.70;99.90
10826;DHT22;5466;55.898;14.094;2023-09-08T08:12:44;18.60;99.90
10826;DHT22;5466;55.898;14.094;2023-09-08T08:14:45;18.70;99.90
10826;DHT22;5466;55.898;14.094;2023-09-08T08:16:45;18.70;99.90
10826;DHT22;5466;55.898;14.094;2023-09-08T08:18:46;18.90;99.90
10826;DHT22;5466;55.898;14.094;2023-09-08T08:20:47;18.90;99.90
10826;DHT22;5466;55.898;14.094;2023-09-08T08:22:47;18.80;99.90
10826;DHT22;5466;55.898;14.094;2023-09-08T08:24:48;18.70;99.90
10826;DHT22;5466;55.898;14.094;2023-09-08T08:26:49;18.70;99.90
10826;DHT22;5466;55.898;14.094;2023-09-08T08:28:52;18.90;99.90
10826;DHT22;5466;55.898;14.094;2023-09-08T08:30:52;19.00;99.90
10826;DHT22;5466;55.898;14.094;2023-09-08T08:32:53;19.00;99.90
10826;DHT22;5466;55.898;14.094;2023-09-08T08:34:54;19.00;99.90
10826;DHT22;5466;55.898;14.094;2023-09-08T08:36:54;19.00;99.90
10826;DHT22;5466;55.898;14.094;2023-09-08T08:38:55;19.00;99.90
10826;DHT22;5466;55.898;14.094;2023-09-08T08:41:02;19.00;99.90
10826;DHT22;5466;55.898;14.094;2023-09-08T08:43:04;19.00;99.90
10826;DHT22;5466;55.898;14.094;2023-09-08T08:45:05;18.90;99.90
10826;DHT22;5466;55.898;14.094;2023-09-08T08:47:10;19.00;99.90
10826;DHT22;5466;55.898;14.094;2023-09-08T08:49:11;19.00;99.90
10826;DHT22;5466;55.898;14.094;2023-09-08T08:51:13;19.00;99.90
10826;DHT22;5466;55.898;14.094;2023-09-08T08:53:15;18.90;99.90
10826;DHT22;5466;55.898;14.094;2023-09-08T08:55:17;18.80;99.90
10826;DHT22;5466;55.898;14.094;2023-09-08T08:57:18;19.00;99.90
10826;DHT22;5466;55.898;14.094;2023-09-08T08:59:19;19.10;99.90
10826;DHT22;5466;55.898;14.094;2023-09-08T09:01:20;19.30;99.90
10826;DHT22;5466;55.898;14.094;2023-09-08T09:03:23;19.40;99.90
10826;DHT22;5466;55.898;14.094;2023-09-08T09:05:24;19.60;99.90
10826;DHT22;5466;55.898;14.094;2023-09-08T09:07:26;19.70;99.90
10826;DHT22;5466;55.898;14.094;2023-09-08T09:09:28;19.70;99.90
10826;DHT22;5466;55.898;14.094;2023-09-08T09:11:29;19.80;99.90
10826;DHT22;5466;55.898;14.094;2023-09-08T09:13:30;19.80;99.90
10826;DHT22;5466;55.898;14.094;2023-09-08T09:15:31;20.00;99.90
10826;DHT22;5466;55.898;14.094;2023-09-08T09:17:35;20.10;99.90
10826;DHT22;5466;55.898;14.094;2023-09-08T09:19:36;20.30;99.90
10826;DHT22;5466;55.898;14.094;2023-09-08T09:21:46;20.40;99.90
10826;DHT22;5466;55.898;14.094;2023-09-08T09:23:48;20.70;99.90
10826;DHT22;5466;55.898;14.094;2023-09-08T09:25:48;20.70;99.90
10826;DHT22;5466;55.898;14.094;2023-09-08T09:28:08;21.00;99.90
10826;DHT22;5466;55.898;14.094;2023-09-08T09:30:09;21.30;99.90
10826;DHT22;5466;55.898;14.094;2023-09-08T09:32:10;21.50;99.90
10826;DHT22;5466;55.898;14.094;2023-09-08T09:34:10;21.70;99.90
10826;DHT22;5466;55.898;14.094;2023-09-08T09:36:20;21.80;99.90
10826;DHT22;5466;55.898;14.094;2023-09-08T09:38:21;21.70;99.90
10826;DHT22;5466;55.898;14.094;2023-09-08T09:40:22;21.30;99.90
10826;DHT22;5466;55.898;14.094;2023-09-08T09:42:23;21.50;99.90
10826;DHT22;5466;55.898;14.094;2023-09-08T09:44:24;21.50;99.90
10826;DHT22;5466;55.898;14.094;2023-09-08T09:46:28;21.60;99.90
10826;DHT22;5466;55.898;14.094;2023-09-08T09:48:28;21.80;99.90
10826;DHT22;5466;55.898;14.094;2023-09-08T09:50:30;22.10;99.90
10826;DHT22;5466;55.898;14.094;2023-09-08T09:52:31;22.10;99.90
10826;DHT22;5466;55.898;14.094;2023-09-08T09:54:32;22.00;99.90
10826;DHT22;5466;55.898;14.094;2023-09-08T09:56:33;21.90;99.90
10826;DHT22;5466;55.898;14.094;2023-09-08T09:58:35;21.80;99.90
10826;DHT22;5466;55.898;14.094;2023-09-08T10:00:35;22.10;99.90
10826;DHT22;5466;55.898;14.094;2023-09-08T10:02:37;22.10;99.90
10826;DHT22;5466;55.898;14.094;2023-09-08T10:04:40;22.50;99.90
10826;DHT22;5466;55.898;14.094;2023-09-08T10:06:41;22.80;99.90
10826;DHT22;5466;55.898;14.094;2023-09-08T10:08:43;23.00;99.90
10826;DHT22;5466;55.898;14.094;2023-09-08T10:10:45;23.00;99.90
10826;DHT22;5466;55.898;14.094;2023-09-08T10:12:52;23.00;99.90
10826;DHT22;5466;55.898;14.094;2023-09-08T10:14:55;23.20;99.90
10826;DHT22;5466;55.898;14.094;2023-09-08T10:16:59;23.60;99.90
10826;DHT22;5466;55.898;14.094;2023-09-08T10:19:02;23.60;99.90
10826;DHT22;5466;55.898;14.094;2023-09-08T10:21:08;23.90;99.90
10826;DHT22;5466;55.898;14.094;2023-09-08T10:23:37;24.20;99.90
10826;DHT22;5466;55.898;14.094;2023-09-08T10:25:43;24.60;99.90
10826;DHT22;5466;55.898;14.094;2023-09-08T10:27:44;24.60;99.90
10826;DHT22;5466;55.898;14.094;2023-09-08T10:29:45;25.10;99.90
10826;DHT22;5466;55.898;14.094;2023-09-08T10:31:47;25.10;99.90
10826;DHT22;5466;55.898;14.094;2023-09-08T10:33:47;25.20;99.90
10826;DHT22;5466;55.898;14.094;2023-09-08T10:35:48;25.40;99.90
10826;DHT22;5466;55.898;14.094;2023-09-08T10:37:49;25.80;99.90
10826;DHT22;5466;55.898;14.094;2023-09-08T10:39:49;25.80;99.90
10826;DHT22;5466;55.898;14.094;2023-09-08T10:41:50;25.80;99.90
10826;DHT22;5466;55.898;14.094;2023-09-08T10:44:07;25.70;99.90
10826;DHT22;5466;55.898;14.094;2023-09-08T10:46:20;25.90;99.90
10826;DHT22;5466;55.898;14.094;2023-09-08T10:48:21;25.90;99.90
10826;DHT22;5466;55.898;14.094;2023-09-08T10:50:34;25.80;99.90
10826;DHT22;5466;55.898;14.094;2023-09-08T10:52:35;25.60;99.90
10826;DHT22;5466;55.898;14.094;2023-09-08T10:54:48;25.60;99.90
10826;DHT22;5466;55.898;14.094;2023-09-08T10:56:56;25.70;99.90
10826;DHT22;5466;55.898;14.094;2023-09-08T10:58:59;25.80;99.90
10826;DHT22;5466;55.898;14.094;2023-09-08T11:01:01;25.90;99.90
10826;DHT22;5466;55.898;14.094;2023-09-08T11:03:02;25.70;99.90
10826;DHT22;5466;55.898;14.094;2023-09-08T11:05:07;26.40;99.90
10826;DHT22;5466;55.898;14.094;2023-09-08T11:07:09;26.70;99.90
10826;DHT22;5466;55.898;14.094;2023-09-08T11:09:10;26.60;99.90
10826;DHT22;5466;55.898;14.094;2023-09-08T11:11:15;26.60;99.90
10826;DHT22;5466;55.898;14.094;2023-09-08T11:13:15;26.40;99.90
10826;DHT22;5466;55.898;14.094;2023-09-08T11:15:16;26.10;99.90
10826;DHT22;5466;55.898;14.094;2023-09-08T11:17:17;25.80;99.90
10826;DHT22;5466;55.898;14.094;2023-09-08T11:19:17;25.80;99.90
10826;DHT22;5466;55.898;14.094;2023-09-08T11:21:18;25.80;99.90
10826;DHT22;5466;55.898;14.094;2023-09-08T11:23:19;25.50;99.90
10826;DHT22;5466;55.898;14.094;2023-09-08T11:25:20;25.40;99.90
10826;DHT22;5466;55.898;14.094;2023-09-08T11:27:21;25.60;99.90
10826;DHT22;5466;55.898;14.094;2023-09-08T11:29:22;25.90;99.90
10826;DHT22;5466;55.898;14.094;2023-09-08T11:31:23;25.90;99.90
10826;DHT22;5466;55.898;14.094;2023-09-08T11:33:24;26.10;99.90
10826;DHT22;5466;55.898;14.094;2023-09-08T11:35:26;26.10;99.90
10826;DHT22;5466;55.898;14.094;2023-09-08T11:37:27;26.10;99.90
10826;DHT22;5466;55.898;14.094;2023-09-08T11:39:28;25.60;99.90
10826;DHT22;5466;55.898;14.094;2023-09-08T11:41:28;25.70;99.90
10826;DHT22;5466;55.898;14.094;2023-09-08T11:43:29;26.10;99.90
10826;DHT22;5466;55.898;14.094;2023-09-08T11:45:36;26.20;99.90
10826;DHT22;5466;55.898;14.094;2023-09-08T11:47:42;25.90;99.90
10826;DHT22;5466;55.898;14.094;2023-09-08T11:49:43;25.80;99.90
10826;DHT22;5466;55.898;14.094;2023-09-08T11:51:45;26.10;99.90
10826;DHT22;5466;55.898;14.094;2023-09-08T11:53:46;26.10;99.90
10826;DHT22;5466;55.898;14.094;2023-09-08T11:55:47;26.10;99.90
10826;DHT22;5466;55.898;14.094;2023-09-08T11:57:55;26.20;99.90
10826;DHT22;5466;55.898;14.094;2023-09-08T11:59:59;26.60;99.90
10826;DHT22;5466;55.898;14.094;2023-09-08T12:02:01;26.40;99.90
10826;DHT22;5466;55.898;14.094;2023-09-08T12:04:01;26.50;99.90
10826;DHT22;5466;55.898;14.094;2023-09-08T12:06:02;26.80;99.90
10826;DHT22;5466;55.898;14.094;2023-09-08T12:08:04;26.90;99.90
10826;DHT22;5466;55.898;14.094;2023-09-08T12:10:11;26.80;99.90
10826;DHT22;5466;55.898;14.094;2023-09-08T12:12:13;26.60;99.90
10826;DHT22;5466;55.898;14.094;2023-09-08T12:14:15;26.40;99.90
10826;DHT22;5466;55.898;14.094;2023-09-08T12:16:20;26.50;99.90
10826;DHT22;5466;55.898;14.094;2023-09-08T12:18:38;26.70;99.90
10826;DHT22;5466;55.898;14.094;2023-09-08T12:20:39;26.40;99.90
10826;DHT22;5466;55.898;14.094;2023-09-08T12:22:48;26.40;99.90
10826;DHT22;5466;55.898;14.094;2023-09-08T12:24:56;26.20;99.90
10826;DHT22;5466;55.898;14.094;2023-09-08T12:26:57;26.10;99.90
10826;DHT22;5466;55.898;14.094;2023-09-08T12:28:57;26.00;99.90
10826;DHT22;5466;55.898;14.094;2023-09-08T12:30:58;25.80;99.90
10826;DHT22;5466;55.898;14.094;2023-09-08T12:33:01;25.70;99.90
10826;DHT22;5466;55.898;14.094;2023-09-08T12:35:03;25.60;99.90
10826;DHT22;5466;55.898;14.094;2023-09-08T12:37:06;25.20;99.90
10826;DHT22;5466;55.898;14.094;2023-09-08T12:39:07;25.40;99.90
10826;DHT22;5466;55.898;14.094;2023-09-08T12:41:08;25.60;99.90
10826;DHT22;5466;55.898;14.094;2023-09-08T12:43:08;25.70;99.90
10826;DHT22;5466;55.898;14.094;2023-09-08T12:45:09;25.50;99.90
10826;DHT22;5466;55.898;14.094;2023-09-08T12:47:11;25.40;99.90
10826;DHT22;5466;55.898;14.094;2023-09-08T12:49:12;25.60;99.90
10826;DHT22;5466;55.898;14.094;2023-09-08T12:51:13;25.60;99.90